Bookmark and Share
Track history (hours):
 

Tor Futura

Last reported at 2013-Dec-28 21:11 UTC. Time now 2014-Apr-24 14:09 UTC.
Position N 34°39' E 033°21'.
Warning: this ship's position is months out of date.

Length 183.1 m; beam 25.2 m; draft 7.8 m.

Type: Cargo ship. MMSI: 219927000.

NotesDate/timePositionNaut miles runAvg speedWind from/ knotsBaromVisibWave heightAir tempDewpointWater temp
2013-Dec-28 21:11N 34°39' E 033°21'1 2.2
2013-Dec-28 20:33N 34°40' E 033°21'4 1.4
2013-Dec-28 17:33N 34°39' E 033°26'1 0.2
2013-Dec-28 13:33N 34°40' E 033°26'2 1.5
2013-Dec-28 12:11N 34°39' E 033°29'1 1.4
2013-Dec-28 11:26N 34°38' E 033°30'6 5.3
2013-Dec-28 10:17N 34°38' E 033°23'6 7.9
2013-Dec-28 09:33N 34°38' E 033°15'1110.8
2013-Dec-28 08:33N 34°39' E 033°02'1 1.2
2013-Dec-28 07:32N 34°39' E 033°01'0 0.0
2013-Dec-28 06:32N 34°39' E 033°01'0 0.0
2013-Dec-28 05:32N 34°39' E 033°01'0 0.0
2013-Dec-28 04:32N 34°39' E 033°01'0 0.0
2013-Dec-28 03:32N 34°39' E 033°01'0 0.0
2013-Dec-28 02:32N 34°39' E 033°01'0 0.0
2013-Dec-28 01:32N 34°39' E 033°01'0 0.0
2013-Dec-28 00:32N 34°39' E 033°01'0 0.0
2013-Dec-27 23:32N 34°39' E 033°01'0 0.0
2013-Dec-27 22:32N 34°39' E 033°01'0 0.0
2013-Dec-27 21:32N 34°39' E 033°01'0 0.0
2013-Dec-27 20:32N 34°39' E 033°01'0 0.0
2013-Dec-27 19:32N 34°39' E 033°01'0 0.0
2013-Dec-27 18:32N 34°39' E 033°01'0 0.0
2013-Dec-27 17:32N 34°39' E 033°01'0 0.0
2013-Dec-27 16:32N 34°39' E 033°01'0 0.0
2013-Dec-27 15:32N 34°39' E 033°01'0 0.0
2013-Dec-27 14:32N 34°39' E 033°01'0 0.0
2013-Dec-27 13:32N 34°39' E 033°01'0 0.0
2013-Dec-27 12:32N 34°39' E 033°01'0 0.0
2013-Dec-27 11:32N 34°39' E 033°01'0 0.0
2013-Dec-27 10:32N 34°39' E 033°01'0 0.0
2013-Dec-27 09:32N 34°39' E 033°01'3 2.9
2013-Dec-27 08:33N 34°39' E 033°04'2 2.1
2013-Dec-27 07:33N 34°39' E 033°07'4 4.2
2013-Dec-27 06:33N 34°38' E 033°12'8 7.9
2013-Dec-27 05:33N 34°38' E 033°22'1313.2
2013-Dec-27 04:33N 34°43' E 033°37'6 5.2
2013-Dec-27 03:28N 34°41' E 033°30'6 6.7
2013-Dec-27 02:33N 34°38' E 033°23'6 6.2
2013-Dec-27 01:33N 34°42' E 033°30'2 0.4
2013-Dec-26 21:31N 34°40' E 033°29'5 5.3
2013-Dec-26 20:33N 34°38' E 033°24'8 7.2
2013-Dec-26 19:26N 34°41' E 033°33'3 2.2
2013-Dec-26 18:15N 34°43' E 033°35'6 7.1
2013-Dec-26 17:28N 34°40' E 033°29'5 5.3
2013-Dec-26 16:34N 34°38' E 033°24'7 7.3
2013-Dec-26 15:32N 34°41' E 033°32'1 0.9
2013-Dec-26 14:25N 34°42' E 033°33'10 2.7
2013-Dec-26 10:33N 34°40' E 033°21'6 6.3
2013-Dec-26 09:33N 34°40' E 033°13'6 6.2
2013-Dec-26 08:33N 34°39' E 033°06'6 6.2
2013-Dec-26 07:33N 34°37' E 033°13'9 7.7
2013-Dec-26 06:21N 34°34' E 033°24'1114.4
2013-Dec-26 05:34N 34°37' E 033°10'3 3.0
2013-Dec-26 04:34N 34°38' E 033°14'10 9.9
2013-Dec-26 03:33N 34°36' E 033°26'6 2.0
2013-Dec-26 00:33N 34°42' E 033°29'6 5.6
2013-Dec-25 23:33N 34°37' E 033°25'4 3.9
2013-Dec-25 22:33N 34°40' E 033°21'5 1.0
2013-Dec-25 17:32N 34°42' E 033°26'6 6.6
2013-Dec-25 16:33N 34°40' E 033°19'7 6.8
2013-Dec-25 15:33N 34°40' E 033°11'6 6.0
2013-Dec-25 14:32N 34°40' E 033°03'0 0.0
2013-Dec-25 13:32N 34°40' E 033°03'0 0.0
2013-Dec-25 12:32N 34°40' E 033°03'0 0.0
2013-Dec-25 11:32N 34°40' E 033°03'0 0.0
2013-Dec-25 10:32N 34°40' E 033°03'0 0.0
2013-Dec-25 09:32N 34°40' E 033°03'0 0.0
2013-Dec-25 08:32N 34°40' E 033°03'0 0.0
2013-Dec-25 07:32N 34°40' E 033°03'0 0.0
2013-Dec-25 06:32N 34°40' E 033°03'0 0.0
2013-Dec-25 05:32N 34°40' E 033°03'0 0.0
2013-Dec-25 04:29N 34°40' E 033°03'0 0.0
2013-Dec-25 03:32N 34°40' E 033°03'0 0.0
2013-Dec-25 02:32N 34°40' E 033°03'0 0.0
2013-Dec-25 01:32N 34°40' E 033°03'0 0.0
2013-Dec-25 00:32N 34°40' E 033°03'0 0.0
2013-Dec-24 23:32N 34°40' E 033°03'0 0.0
2013-Dec-24 22:26N 34°40' E 033°03'0 0.0
2013-Dec-24 21:32N 34°40' E 033°03'0 0.0
2013-Dec-24 20:32N 34°40' E 033°03'0 0.0
2013-Dec-24 19:32N 34°40' E 033°03'0 0.0
2013-Dec-24 18:32N 34°40' E 033°03'0 0.0
2013-Dec-24 17:32N 34°40' E 033°03'0 0.0
2013-Dec-24 16:29N 34°40' E 033°03'0 0.0
2013-Dec-24 15:32N 34°40' E 033°03'0 0.0
2013-Dec-24 14:32N 34°40' E 033°03'0 0.0
2013-Dec-24 13:32N 34°40' E 033°03'0 0.0
2013-Dec-24 12:32N 34°40' E 033°03'0 0.0
2013-Dec-24 11:32N 34°40' E 033°03'0 0.0
2013-Dec-24 10:32N 34°40' E 033°03'0 0.0
2013-Dec-24 09:32N 34°40' E 033°03'0 0.0
2013-Dec-24 08:32N 34°40' E 033°03'0 0.0
2013-Dec-24 07:29N 34°40' E 033°03'0 0.0
2013-Dec-24 06:32N 34°40' E 033°04'0 0.0
2013-Dec-24 05:32N 34°40' E 033°04'0 0.0
2013-Dec-24 04:32N 34°40' E 033°04'0 0.0
2013-Dec-24 03:32N 34°40' E 033°04'0 0.0
2013-Dec-24 02:32N 34°40' E 033°04'0 0.0
2013-Dec-24 01:32N 34°40' E 033°04'0 0.0
2013-Dec-24 00:32N 34°40' E 033°04'0 0.0
2013-Dec-23 23:32N 34°40' E 033°04'0 0.0
2013-Dec-23 22:32N 34°40' E 033°04'0 0.0
2013-Dec-23 21:32N 34°40' E 033°04'0 0.1
2013-Dec-23 20:32N 34°40' E 033°04'0 0.0
2013-Dec-23 19:32N 34°40' E 033°04'0 0.0
2013-Dec-23 18:32N 34°40' E 033°04'0 0.0
2013-Dec-23 17:29N 34°40' E 033°04'0 0.0
2013-Dec-23 16:32N 34°40' E 033°04'0 0.1
2013-Dec-23 15:32N 34°40' E 033°04'0 0.0
2013-Dec-23 14:32N 34°40' E 033°04'0 0.0
2013-Dec-23 13:32N 34°40' E 033°04'0 0.0
2013-Dec-23 12:32N 34°40' E 033°04'0 0.0
2013-Dec-23 11:26N 34°40' E 033°04'0 0.0
2013-Dec-23 10:29N 34°40' E 033°04'0 0.0
2013-Dec-23 09:32N 34°40' E 033°04'0 0.0
2013-Dec-23 08:32N 34°40' E 033°04'0 0.1
2013-Dec-23 07:32N 34°40' E 033°04'0 0.0
2013-Dec-23 06:32N 34°40' E 033°04'0 0.0
2013-Dec-23 05:32N 34°40' E 033°04'0 0.0
2013-Dec-23 04:32N 34°40' E 033°04'0 0.1
2013-Dec-23 03:32N 34°40' E 033°04'0 0.0
2013-Dec-23 02:32N 34°40' E 033°04'0 0.0
2013-Dec-23 01:32N 34°40' E 033°04'0 0.0
2013-Dec-23 00:32N 34°40' E 033°04'0 0.0
2013-Dec-22 23:32N 34°40' E 033°04'0 0.0
2013-Dec-22 22:32N 34°40' E 033°04'0 0.0
2013-Dec-22 21:32N 34°40' E 033°04'0 0.0
2013-Dec-22 20:32N 34°40' E 033°04'0 0.1
2013-Dec-22 19:32N 34°40' E 033°04'0 0.0
2013-Dec-22 18:32N 34°40' E 033°04'0 0.0
2013-Dec-22 17:32N 34°40' E 033°04'0 0.0
2013-Dec-22 16:32N 34°40' E 033°04'0 0.1
2013-Dec-22 15:32N 34°40' E 033°04'0 0.0
2013-Dec-22 14:32N 34°40' E 033°04'0 0.1
2013-Dec-22 13:32N 34°40' E 033°04'0 0.0
2013-Dec-22 12:32N 34°40' E 033°04'0 0.0
2013-Dec-22 11:32N 34°40' E 033°04'1 0.7
2013-Dec-22 10:33N 34°40' E 033°04'2 2.0
2013-Dec-22 09:31N 34°39' E 033°01'0 0.0
2013-Dec-22 08:31N 34°39' E 033°01'0 0.0
2013-Dec-22 07:31N 34°39' E 033°01'0 0.0
2013-Dec-22 06:28N 34°39' E 033°01'0 0.0
2013-Dec-22 05:31N 34°39' E 033°01'0 0.0
2013-Dec-22 04:31N 34°39' E 033°01'0 0.0
2013-Dec-22 03:31N 34°39' E 033°01'0 0.0
2013-Dec-22 02:31N 34°39' E 033°01'0 0.0
2013-Dec-22 01:28N 34°39' E 033°01'0 0.0
2013-Dec-22 00:31N 34°39' E 033°01'0 0.0
2013-Dec-21 23:31N 34°39' E 033°01'0 0.0
2013-Dec-21 22:31N 34°39' E 033°01'0 0.0
2013-Dec-21 21:31N 34°39' E 033°01'0 0.0
2013-Dec-21 20:31N 34°39' E 033°01'0 0.0
2013-Dec-21 19:31N 34°39' E 033°01'0 0.0
2013-Dec-21 18:28N 34°39' E 033°01'0 0.0
2013-Dec-21 17:31N 34°39' E 033°01'0 0.0
2013-Dec-21 16:31N 34°39' E 033°01'0 0.0
2013-Dec-21 15:28N 34°39' E 033°01'0 0.0
2013-Dec-21 14:31N 34°39' E 033°01'0 0.0
2013-Dec-21 13:31N 34°39' E 033°01'0 0.0
2013-Dec-21 12:31N 34°39' E 033°01'0 0.0
2013-Dec-21 11:28N 34°39' E 033°01'0 0.0
2013-Dec-21 10:31N 34°39' E 033°01'0 0.0
2013-Dec-21 09:31N 34°39' E 033°01'0 0.0
2013-Dec-21 08:31N 34°39' E 033°01'0 0.0
2013-Dec-21 07:31N 34°39' E 033°01'0 0.0
2013-Dec-21 06:31N 34°39' E 033°01'0 0.0
2013-Dec-21 05:31N 34°39' E 033°01'0 0.0
2013-Dec-21 04:31N 34°39' E 033°01'0 0.0
2013-Dec-21 03:31N 34°39' E 033°01'0 0.0
2013-Dec-21 02:31N 34°39' E 033°01'0 0.0
2013-Dec-21 01:31N 34°39' E 033°01'0 0.0
2013-Dec-21 00:28N 34°39' E 033°01'0 0.0
2013-Dec-20 23:31N 34°39' E 033°01'0 0.0
2013-Dec-20 22:31N 34°39' E 033°01'0 0.0
2013-Dec-20 21:31N 34°39' E 033°01'0 0.0
2013-Dec-20 20:31N 34°39' E 033°01'0 0.0
2013-Dec-20 19:31N 34°39' E 033°01'0 0.0
2013-Dec-20 18:28N 34°39' E 033°01'0 0.0
2013-Dec-20 17:31N 34°39' E 033°01'0 0.0
2013-Dec-20 16:31N 34°39' E 033°01'0 0.0
2013-Dec-20 15:31N 34°39' E 033°01'0 0.0
2013-Dec-20 14:31N 34°39' E 033°01'0 0.0
2013-Dec-20 13:31N 34°39' E 033°01'0 0.0
2013-Dec-20 12:31N 34°39' E 033°01'0 0.0
2013-Dec-20 11:28N 34°39' E 033°01'0 0.0
2013-Dec-20 10:31N 34°39' E 033°01'0 0.0
2013-Dec-20 09:31N 34°39' E 033°01'0 0.0
2013-Dec-20 08:31N 34°39' E 033°01'0 0.0
2013-Dec-20 07:31N 34°39' E 033°01'0 0.0
2013-Dec-20 06:28N 34°39' E 033°01'0 0.0
2013-Dec-20 05:31N 34°39' E 033°01'0 0.0
2013-Dec-20 04:31N 34°39' E 033°01'0 0.0
2013-Dec-20 03:31N 34°39' E 033°01'0 0.0
2013-Dec-20 02:31N 34°39' E 033°01'0 0.0
2013-Dec-20 01:31N 34°39' E 033°01'0 0.0
2013-Dec-20 00:31N 34°39' E 033°01'0 0.0
2013-Dec-19 23:31N 34°39' E 033°01'0 0.0
2013-Dec-19 22:31N 34°39' E 033°01'0 0.0
2013-Dec-19 21:31N 34°39' E 033°01'0 0.0
2013-Dec-19 20:31N 34°39' E 033°01'0 0.0
2013-Dec-19 19:31N 34°39' E 033°01'0 0.0
2013-Dec-19 18:31N 34°39' E 033°01'0 0.0
2013-Dec-19 17:31N 34°39' E 033°01'0 0.0
2013-Dec-19 16:31N 34°39' E 033°01'0 0.0
2013-Dec-19 15:31N 34°39' E 033°01'0 0.0
2013-Dec-19 14:31N 34°39' E 033°01'0 0.0
2013-Dec-19 13:31N 34°39' E 033°01'0 0.0
2013-Dec-19 12:31N 34°39' E 033°01'0 0.0
2013-Dec-19 11:31N 34°39' E 033°01'0 0.0
2013-Dec-19 10:31N 34°39' E 033°01'0 0.0
2013-Dec-19 09:31N 34°39' E 033°01'5 5.3
2013-Dec-19 08:34N 34°38' E 033°07'1515.4
2013-Dec-19 07:33N 34°30' E 033°24'6 2.8
2013-Dec-19 05:33N 34°29' E 033°30'8 8.5
2013-Dec-19 04:33N 34°27' E 033°20'6 6.0
2013-Dec-19 03:33N 34°31' E 033°26'  

Dump ship's entire track history

sailing weather and tide predictions

Tor Futura — OZZE2 — position and weather